»·PEaware :: ACA135 CYYZ-CYYC

ACA135 :: CYYZ-CYYC

FLIGHT INFORMATION

Flight Status: Arrived
Operator:
Air Canada
More flights by this operator :: More flights under this callsign
Pilot: Jamyson D. (13674)
Aircraft: BOEING 767-300
(B763)
More flights by this aircraft type
Origin: CYYZ Toronto/Pearson Intl
Canada
Destination: CYYC Calgary Intl
Canada
More flights between these airports :: More routes between these airports
Route: AVSEP5 VIGLO SSM YQT J500 VLR SHAWI Q874 BIRKO BIRKO4
File this flight plan on PilotEdge
Remarks:
Altitude:
(Current/Filed)
36,000ft
Speed:
(Current/Filed)
465kts
Departed: 05-Jan-20 05:36 AM
Arrived: 05-Jan-20 10:17 AM
Distance/Time
Traveled:
1451nm/4:41
Distance/Time
To Go:
Arrived

Flight Plot

Page will automatically refresh every two minutes.

Flight plan parsing failed; only flown route is shown


Map Options




Map Legend


Flown Route
Filed Route
Departure Airport
Arrival Airport
Navaid (VOR, NDB)
Fix

Horizontal Profiles

Position Reports

Time Latitude Longitude Heading Altitude Ground
Speed
05-Jan-20 05:21 43.679126 -79.618030 72 553ft 0kts
05-Jan-20 05:22 43.678974 -79.618347 35 553ft 2kts
05-Jan-20 05:23 43.678421 -79.618356 321 553ft 2kts
05-Jan-20 05:24 43.678396 -79.618320 317 553ft 0kts
05-Jan-20 05:25 43.678396 -79.618320 317 553ft 0kts
05-Jan-20 05:26 43.678396 -79.618320 317 553ft 0kts
05-Jan-20 05:27 43.678397 -79.618320 317 553ft 0kts
05-Jan-20 05:28 43.678444 -79.618378 318 553ft 1kts
05-Jan-20 05:29 43.679923 -79.620004 232 553ft 7kts
05-Jan-20 05:30 43.681531 -79.623423 314 553ft 19kts
05-Jan-20 05:31 43.685443 -79.628378 316 553ft 14kts
05-Jan-20 05:32 43.688105 -79.631851 316 556ft 15kts
05-Jan-20 05:33 43.691039 -79.635276 10 559ft 5kts
05-Jan-20 05:34 43.693086 -79.634208 0 558ft 13kts
05-Jan-20 05:35 43.687443 -79.644847 226 556ft 130kts
05-Jan-20 05:36 43.654971 -79.699013 236 2347ft 208kts
05-Jan-20 05:37 43.622086 -79.773504 280 4483ft 231kts
05-Jan-20 05:38 43.656571 -79.843530 304 7432ft 231kts
05-Jan-20 05:39 43.689615 -79.920977 303 10305ft 243kts
05-Jan-20 05:40 43.753740 -79.980659 332 12303ft 300kts
05-Jan-20 05:41 43.828470 -80.033836 331 15652ft 307kts
05-Jan-20 05:42 43.905015 -80.088592 330 18723ft 316kts
05-Jan-20 05:43 43.968955 -80.173570 309 21448ft 332kts
05-Jan-20 05:44 44.025119 -80.277063 308 24011ft 346kts
05-Jan-20 05:45 44.083748 -80.385794 308 26451ft 358kts
05-Jan-20 05:46 44.145245 -80.497370 312 28818ft 370kts
05-Jan-20 05:47 44.216797 -80.604030 312 30949ft 384kts
05-Jan-20 05:48 44.290896 -80.714685 310 33093ft 390kts
05-Jan-20 05:49 44.364514 -80.825048 310 35056ft 390kts
05-Jan-20 05:50 44.438572 -80.936504 310 36048ft 393kts
05-Jan-20 05:51 44.512141 -81.047635 310 36051ft 388kts
05-Jan-20 05:52 44.585240 -81.158516 310 36052ft 388kts
05-Jan-20 05:53 44.658720 -81.270416 310 36040ft 389kts
05-Jan-20 05:54 44.731957 -81.382396 310 36038ft 389kts
05-Jan-20 05:55 44.805199 -81.494833 310 36037ft 390kts
05-Jan-20 05:56 44.878219 -81.607390 310 36034ft 389kts
05-Jan-20 05:57 44.951353 -81.720579 309 36046ft 390kts
05-Jan-20 05:58 45.024320 -81.833953 309 36043ft 390kts
05-Jan-20 05:59 45.097478 -81.948057 309 36041ft 390kts
05-Jan-20 06:00 45.170363 -82.062198 309 36046ft 391kts
05-Jan-20 06:01 45.243481 -82.177196 309 36045ft 392kts
05-Jan-20 06:02 45.316400 -82.292356 309 36044ft 393kts
05-Jan-20 06:03 45.389348 -82.408031 309 36041ft 393kts
05-Jan-20 06:04 45.457451 -82.529513 306 36039ft 392kts
05-Jan-20 06:05 45.524782 -82.651841 305 36037ft 392kts
05-Jan-20 06:06 45.592008 -82.774445 305 36047ft 392kts
05-Jan-20 06:07 45.659067 -82.897286 305 36046ft 393kts
05-Jan-20 06:08 45.726309 -83.020995 305 36045ft 395kts
05-Jan-20 06:09 45.793307 -83.144789 305 36038ft 395kts
05-Jan-20 06:10 45.860612 -83.269709 305 36032ft 396kts
05-Jan-20 06:11 45.927876 -83.395114 304 36029ft 398kts
05-Jan-20 06:12 45.995443 -83.521651 305 36027ft 398kts
05-Jan-20 06:13 46.062901 -83.648540 304 36025ft 399kts
05-Jan-20 06:14 46.129995 -83.775331 304 36041ft 399kts
05-Jan-20 06:15 46.197248 -83.902992 304 36039ft 399kts
05-Jan-20 06:16 46.264287 -84.030830 304 36035ft 399kts
05-Jan-20 06:17 46.330988 -84.158611 304 36020ft 399kts
05-Jan-20 06:18 46.398058 -84.287687 304 36015ft 400kts
05-Jan-20 06:19 46.455412 -84.424839 298 36013ft 398kts
05-Jan-20 06:20 46.510479 -84.564932 298 36011ft 400kts
05-Jan-20 06:21 46.565349 -84.705438 297 36021ft 399kts
05-Jan-20 06:22 46.620049 -84.846237 297 36019ft 400kts
05-Jan-20 06:23 46.674625 -84.987455 297 36016ft 400kts
05-Jan-20 06:24 46.729195 -85.129395 297 35998ft 401kts
05-Jan-20 06:25 46.783744 -85.272032 297 35987ft 402kts
05-Jan-20 06:26 46.838091 -85.414902 297 35985ft 402kts
05-Jan-20 06:27 46.892117 -85.557676 297 35983ft 402kts
05-Jan-20 06:28 46.946081 -85.701048 296 35993ft 403kts
05-Jan-20 06:29 47.000105 -85.845332 296 35991ft 403kts
05-Jan-20 06:30 47.053716 -85.989304 296 35990ft 404kts
05-Jan-20 06:31 47.107399 -86.134244 296 35991ft 405kts
05-Jan-20 06:32 47.161235 -86.280380 296 35985ft 405kts
05-Jan-20 06:33 47.214741 -86.426426 296 35974ft 405kts
05-Jan-20 06:34 47.267634 -86.571601 296 35931ft 407kts
05-Jan-20 06:35 47.321092 -86.719141 295 35921ft 408kts
05-Jan-20 06:36 47.373770 -86.865321 295 35919ft 408kts
05-Jan-20 06:37 47.426357 -87.012068 295 35918ft 409kts
05-Jan-20 06:38 47.479438 -87.161018 295 35916ft 409kts
05-Jan-20 06:39 47.532284 -87.310150 295 35913ft 410kts
05-Jan-20 06:40 47.585120 -87.460120 295 35871ft 411kts
05-Jan-20 06:41 47.637522 -87.609696 295 35838ft 412kts
05-Jan-20 06:42 47.690387 -87.761472 294 35845ft 414kts
05-Jan-20 06:43 47.743049 -87.913548 294 35844ft 414kts
05-Jan-20 06:44 47.795647 -88.066345 294 35843ft 415kts
05-Jan-20 06:45 47.848045 -88.219432 294 35843ft 415kts
05-Jan-20 06:46 47.900071 -88.372352 294 35841ft 414kts
05-Jan-20 06:47 47.952029 -88.525976 294 35837ft 413kts
05-Jan-20 06:48 48.002291 -88.675470 294 35840ft 413kts
05-Jan-20 06:49 48.053873 -88.829775 293 35826ft 415kts
05-Jan-20 06:50 48.105539 -88.985269 293 35826ft 417kts
05-Jan-20 06:51 48.156848 -89.140662 293 35826ft 418kts
05-Jan-20 06:52 48.207904 -89.296206 293 35824ft 416kts
05-Jan-20 06:53 48.258341 -89.452711 291 35820ft 416kts
05-Jan-20 06:54 48.304608 -89.611405 291 35823ft 414kts
05-Jan-20 06:55 48.350524 -89.770186 290 35832ft 414kts
05-Jan-20 06:56 48.396256 -89.929294 290 35796ft 414kts
05-Jan-20 06:57 48.441756 -90.088758 290 35787ft 415kts
05-Jan-20 06:58 48.487073 -90.248739 290 35738ft 417kts
05-Jan-20 06:59 48.532391 -90.409692 290 35733ft 418kts
05-Jan-20 07:00 48.577529 -90.571126 290 35732ft 418kts
05-Jan-20 07:01 48.622622 -90.733560 289 35741ft 418kts
05-Jan-20 07:02 48.667549 -90.896311 289 35748ft 419kts
05-Jan-20 07:03 48.712232 -91.059520 289 35730ft 421kts
05-Jan-20 07:05 48.756737 -91.223015 290 35720ft 421kts
05-Jan-20 07:06 48.801167 -91.387398 289 35720ft 421kts
05-Jan-20 07:07 48.845282 -91.552046 289 35707ft 421kts
05-Jan-20 07:08 48.889346 -91.717335 289 35729ft 421kts
05-Jan-20 07:09 48.933852 -91.885587 289 35738ft 432kts
05-Jan-20 07:10 48.978256 -92.054720 289 35735ft 431kts
05-Jan-20 07:11 49.022347 -92.224016 289 35738ft 431kts
05-Jan-20 07:12 49.066096 -92.393062 289 35694ft 430kts
05-Jan-20 07:13 49.109828 -92.563357 289 35660ft 432kts
05-Jan-20 07:14 49.153488 -92.734782 288 35643ft 431kts
05-Jan-20 07:15 49.196387 -92.904280 288 35642ft 431kts
05-Jan-20 07:16 49.239361 -93.075833 288 35656ft 431kts
05-Jan-20 07:17 49.282058 -93.247067 288 35664ft 431kts
05-Jan-20 07:18 49.324583 -93.419151 288 35673ft 432kts
05-Jan-20 07:19 49.366812 -93.591497 288 35654ft 432kts
05-Jan-20 07:20 49.409011 -93.764549 288 35634ft 433kts
05-Jan-20 07:21 49.450812 -93.937973 288 35636ft 433kts
05-Jan-20 07:22 49.491814 -94.112441 287 35634ft 432kts
05-Jan-20 07:23 49.531117 -94.287377 287 35628ft 432kts
05-Jan-20 07:24 49.570005 -94.461698 287 35641ft 433kts
05-Jan-20 07:25 49.608750 -94.636693 287 35625ft 431kts
05-Jan-20 07:26 49.647168 -94.811885 286 35632ft 431kts
05-Jan-20 07:26 49.678933 -94.957854 286 35638ft 430kts
05-Jan-20 07:28 49.723055 -95.162397 286 35679ft 430kts
05-Jan-20 07:28 49.754474 -95.309090 286 35734ft 431kts
05-Jan-20 07:30 49.797982 -95.514297 286 35732ft 430kts
05-Jan-20 07:31 49.834906 -95.690043 286 35761ft 430kts
05-Jan-20 07:31 49.865845 -95.838595 286 35761ft 430kts
05-Jan-20 07:33 49.908517 -96.045061 285 35785ft 430kts
05-Jan-20 07:33 49.938634 -96.192040 286 35801ft 430kts
05-Jan-20 07:34 49.974556 -96.368895 285 35797ft 430kts
05-Jan-20 07:35 50.010198 -96.546299 286 35793ft 431kts
05-Jan-20 07:36 50.045704 -96.724188 285 35801ft 431kts
05-Jan-20 07:38 50.086730 -96.932187 285 35800ft 431kts
05-Jan-20 07:38 50.115874 -97.080945 285 35801ft 430kts
05-Jan-20 07:39 50.150499 -97.259356 285 35801ft 430kts
05-Jan-20 07:40 50.184819 -97.438064 285 35804ft 429kts
05-Jan-20 07:41 50.218692 -97.616181 285 35797ft 429kts
05-Jan-20 07:42 50.252421 -97.794965 284 35815ft 428kts
05-Jan-20 07:43 50.285731 -97.973245 284 35795ft 428kts
05-Jan-20 07:44 50.318795 -98.152016 285 35800ft 428kts
05-Jan-20 07:45 50.351721 -98.331795 285 35794ft 428kts
05-Jan-20 07:46 50.384297 -98.511398 285 35840ft 427kts
05-Jan-20 07:47 50.415973 -98.687963 284 35892ft 427kts
05-Jan-20 07:48 50.440108 -98.870027 280 35889ft 425kts
05-Jan-20 07:49 50.462038 -99.051806 280 35892ft 425kts
05-Jan-20 07:50 50.483511 -99.233401 280 35908ft 423kts
05-Jan-20 07:51 50.504777 -99.415031 280 35917ft 422kts
05-Jan-20 07:52 50.525706 -99.596703 280 35896ft 423kts
05-Jan-20 07:53 50.546364 -99.778690 279 35916ft 421kts
05-Jan-20 07:54 50.566702 -99.960276 279 35878ft 422kts
05-Jan-20 07:55 50.586626 -100.141032 279 35858ft 420kts
05-Jan-20 07:56 50.606341 -100.322814 280 35880ft 419kts
05-Jan-20 07:57 50.625737 -100.503976 280 35874ft 420kts
05-Jan-20 07:58 50.644840 -100.685757 279 35884ft 420kts
05-Jan-20 07:59 50.663530 -100.866120 279 35891ft 420kts
05-Jan-20 08:00 50.682068 -101.048049 279 35875ft 418kts
05-Jan-20 08:01 50.700274 -101.229083 279 35874ft 417kts
05-Jan-20 08:02 50.718177 -101.410139 279 35905ft 418kts
05-Jan-20 08:03 50.735809 -101.591541 279 35931ft 418kts
05-Jan-20 08:04 50.753053 -101.772652 278 35934ft 417kts
05-Jan-20 08:05 50.770072 -101.953721 278 35932ft 417kts
05-Jan-20 08:06 50.786750 -102.134567 278 35935ft 415kts
05-Jan-20 08:07 50.803181 -102.315550 278 35929ft 415kts
05-Jan-20 08:08 50.819330 -102.496973 278 35970ft 417kts
05-Jan-20 08:09 50.835158 -102.677806 277 35944ft 416kts
05-Jan-20 08:10 50.850775 -102.859641 277 35946ft 416kts
05-Jan-20 08:11 50.866047 -103.041008 277 35944ft 415kts
05-Jan-20 08:12 50.881040 -103.222446 277 35942ft 416kts
05-Jan-20 08:13 50.895752 -103.403961 278 35940ft 416kts
05-Jan-20 08:14 50.910199 -103.585786 277 36005ft 416kts
05-Jan-20 08:15 50.924319 -103.767216 277 36082ft 416kts
05-Jan-20 08:16 50.938224 -103.949593 277 36081ft 415kts
05-Jan-20 08:17 50.951655 -104.129542 277 36081ft 415kts
05-Jan-20 08:18 50.964974 -104.311874 277 36078ft 415kts
05-Jan-20 08:19 50.977864 -104.492253 277 36077ft 415kts
05-Jan-20 08:20 50.990581 -104.674282 276 36081ft 415kts
05-Jan-20 08:21 51.003101 -104.857524 276 36082ft 416kts
05-Jan-20 08:22 51.015284 -105.040224 276 36081ft 416kts
05-Jan-20 08:23 51.027201 -105.223064 276 36077ft 415kts
05-Jan-20 08:24 51.038793 -105.405715 276 36085ft 415kts
05-Jan-20 08:25 51.050080 -105.588225 276 36078ft 417kts
05-Jan-20 08:26 51.060952 -105.768916 275 36080ft 416kts
05-Jan-20 08:27 51.071738 -105.952334 275 36050ft 417kts
05-Jan-20 08:28 51.082251 -106.136217 275 36023ft 417kts
05-Jan-20 08:29 51.092473 -106.319609 275 36027ft 416kts
05-Jan-20 08:30 51.102102 -106.497594 275 36019ft 417kts
05-Jan-20 08:31 51.111661 -106.681096 275 36035ft 416kts
05-Jan-20 08:32 51.121051 -106.864987 274 36052ft 417kts
05-Jan-20 08:33 51.130109 -107.048803 275 36040ft 417kts
05-Jan-20 08:34 51.138884 -107.232714 275 36049ft 417kts
05-Jan-20 08:35 51.147363 -107.417148 275 36039ft 417kts
05-Jan-20 08:36 51.155515 -107.600608 275 36039ft 417kts
05-Jan-20 08:37 51.163442 -107.784821 274 36049ft 416kts
05-Jan-20 08:38 51.171032 -107.968651 274 36046ft 416kts
05-Jan-20 08:39 51.178340 -108.152503 274 36064ft 416kts
05-Jan-20 08:40 51.185376 -108.336813 274 36054ft 416kts
05-Jan-20 08:41 51.192116 -108.520966 274 36051ft 417kts
05-Jan-20 08:42 51.198410 -108.700747 273 36058ft 417kts
05-Jan-20 08:43 51.204595 -108.885533 273 36056ft 417kts
05-Jan-20 08:44 51.210462 -109.069493 273 36055ft 417kts
05-Jan-20 08:45 51.216070 -109.254436 273 36053ft 416kts
05-Jan-20 08:46 51.221357 -109.438573 273 36052ft 415kts
05-Jan-20 08:47 51.226371 -109.623102 273 36050ft 415kts
05-Jan-20 08:48 51.231016 -109.804809 272 36056ft 416kts
05-Jan-20 08:49 51.235437 -109.988781 272 36055ft 416kts
05-Jan-20 08:50 51.250578 -110.171460 278 36053ft 414kts
05-Jan-20 08:51 51.266253 -110.353784 277 36075ft 415kts
05-Jan-20 08:52 51.281597 -110.536355 277 36091ft 414kts
05-Jan-20 08:53 51.296499 -110.717187 277 36063ft 415kts
05-Jan-20 08:54 51.311258 -110.899682 276 36112ft 415kts
05-Jan-20 08:55 51.313526 -110.928219 277 36113ft 415kts
05-Jan-20 08:56 51.313526 -110.928219 277 36113ft 415kts
05-Jan-20 08:57 51.313526 -110.928219 277 36113ft 415kts
05-Jan-20 08:58 51.313526 -110.928219 277 36113ft 415kts
05-Jan-20 08:59 51.313526 -110.928219 277 36113ft 415kts
05-Jan-20 09:00 51.313526 -110.928219 277 36113ft 415kts
05-Jan-20 09:01 51.313526 -110.928219 277 36113ft 415kts
05-Jan-20 09:02 51.313526 -110.928219 277 36113ft 415kts
05-Jan-20 09:03 51.313526 -110.928219 277 36113ft 415kts
05-Jan-20 09:04 51.313526 -110.928219 277 36113ft 415kts
05-Jan-20 09:05 51.313526 -110.928219 277 36113ft 415kts
05-Jan-20 09:06 51.313526 -110.928219 277 36113ft 415kts
05-Jan-20 09:07 51.313526 -110.928219 277 36113ft 415kts
05-Jan-20 09:08 51.313526 -110.928219 277 36113ft 415kts
05-Jan-20 09:09 51.313526 -110.928219 277 36113ft 415kts
05-Jan-20 09:10 51.313526 -110.928219 277 36113ft 415kts
05-Jan-20 09:11 51.313526 -110.928219 277 36113ft 415kts
05-Jan-20 09:12 51.313526 -110.928219 277 36113ft 415kts
05-Jan-20 09:13 51.313526 -110.928219 277 36113ft 415kts
05-Jan-20 09:14 51.313526 -110.928219 277 36113ft 415kts
05-Jan-20 09:15 51.313526 -110.928219 277 36113ft 415kts
05-Jan-20 09:16 51.313526 -110.928219 277 36113ft 415kts
05-Jan-20 09:17 51.313526 -110.928219 277 36113ft 415kts
05-Jan-20 09:18 51.313526 -110.928219 277 36113ft 415kts
05-Jan-20 09:19 51.313526 -110.928219 277 36113ft 415kts
05-Jan-20 09:20 51.313526 -110.928219 277 36113ft 415kts
05-Jan-20 09:21 51.313526 -110.928219 277 36113ft 415kts
05-Jan-20 09:22 51.313526 -110.928219 277 36113ft 415kts
05-Jan-20 09:23 51.313526 -110.928219 277 36113ft 415kts
05-Jan-20 09:24 51.313526 -110.928219 277 36113ft 415kts
05-Jan-20 09:25 51.313526 -110.928219 277 36113ft 415kts
05-Jan-20 09:26 51.313526 -110.928219 277 36113ft 415kts
05-Jan-20 09:27 51.313526 -110.928219 277 36113ft 415kts
05-Jan-20 09:28 51.313526 -110.928219 277 36113ft 415kts
05-Jan-20 09:29 51.313526 -110.928219 277 36113ft 415kts
05-Jan-20 09:30 51.313526 -110.928219 277 36113ft 415kts
05-Jan-20 09:31 51.313526 -110.928219 277 36113ft 415kts
05-Jan-20 09:32 51.313526 -110.928219 277 36113ft 415kts
05-Jan-20 09:33 51.313526 -110.928219 277 36113ft 415kts
05-Jan-20 09:34 51.313526 -110.928219 277 36113ft 415kts
05-Jan-20 09:35 51.313526 -110.928219 277 36113ft 415kts
05-Jan-20 09:36 51.313526 -110.928219 277 36113ft 415kts
05-Jan-20 09:37 51.313526 -110.928219 277 36113ft 415kts
05-Jan-20 09:38 51.313526 -110.928219 277 36113ft 415kts
05-Jan-20 09:39 51.313526 -110.928219 277 36113ft 415kts
05-Jan-20 09:40 51.313526 -110.928219 277 36113ft 415kts
05-Jan-20 09:41 51.313526 -110.928219 277 36113ft 415kts
05-Jan-20 09:42 51.313526 -110.928219 277 36113ft 415kts
05-Jan-20 09:43 51.313526 -110.928219 277 36113ft 415kts
05-Jan-20 09:44 51.313526 -110.928219 277 36113ft 415kts
05-Jan-20 09:45 51.313526 -110.928219 277 36113ft 415kts
05-Jan-20 09:46 51.313526 -110.928219 277 36113ft 415kts
05-Jan-20 09:47 51.313526 -110.928219 277 36113ft 415kts
05-Jan-20 09:49 51.313526 -110.928219 277 36113ft 415kts
05-Jan-20 09:50 51.322873 -111.046589 276 36107ft 415kts
05-Jan-20 09:51 51.337038 -111.228037 276 36069ft 396kts
05-Jan-20 09:52 51.350098 -111.398884 277 34148ft 382kts
05-Jan-20 09:53 51.362752 -111.568213 277 32172ft 386kts
05-Jan-20 09:54 51.375302 -111.739160 277 30147ft 388kts
05-Jan-20 09:55 51.387499 -111.909098 278 28095ft 382kts
05-Jan-20 09:56 51.399323 -112.077013 278 26059ft 376kts
05-Jan-20 09:57 51.410644 -112.241332 279 24053ft 368kts
05-Jan-20 09:58 51.421509 -112.402159 279 22078ft 355kts
05-Jan-20 09:59 51.431752 -112.556966 279 20180ft 344kts
05-Jan-20 10:00 51.441535 -112.707877 278 18426ft 335kts
05-Jan-20 10:01 51.450881 -112.854942 278 16839ft 326kts
05-Jan-20 10:02 51.459789 -112.998000 278 15363ft 318kts
05-Jan-20 10:03 51.468299 -113.137013 278 14061ft 305kts
05-Jan-20 10:04 51.472978 -113.257501 257 13925ft 252kts
05-Jan-20 10:05 51.429300 -113.353210 236 12873ft 268kts
05-Jan-20 10:06 51.382116 -113.444410 235 11625ft 264kts
05-Jan-20 10:07 51.335524 -113.533887 234 10463ft 258kts
05-Jan-20 10:08 51.292785 -113.615519 233 9371ft 217kts
05-Jan-20 10:09 51.273027 -113.698412 261 8339ft 195kts
05-Jan-20 10:09 51.267375 -113.762547 260 7632ft 160kts
05-Jan-20 10:11 51.260932 -113.837683 259 6889ft 121kts
05-Jan-20 10:12 51.256212 -113.892339 259 6360ft 124kts
05-Jan-20 10:12 51.252516 -113.938321 255 5839ft 124kts
05-Jan-20 10:14 51.227684 -113.987688 208 5178ft 130kts
05-Jan-20 10:14 51.196836 -113.992694 172 4629ft 139kts
05-Jan-20 10:15 51.159004 -113.990190 180 3849ft 135kts
05-Jan-20 10:17 51.128575 -113.991055 204 3568ft 36kts
05-Jan-20 10:17 51.127012 -113.996526 269 3568ft 13kts
05-Jan-20 10:18 51.126993 -114.003947 269 3568ft 21kts
05-Jan-20 10:19 51.128102 -114.010926 292 3568ft 11kts
05-Jan-20 10:20 51.128121 -114.013061 18 3568ft 4kts
05-Jan-20 10:21 51.128781 -114.012700 19 3568ft 0kts
05-Jan-20 10:22 51.128780 -114.012700 18 3568ft 0kts
05-Jan-20 10:23 51.128780 -114.012700 18 3568ft 0kts
05-Jan-20 10:24 51.128780 -114.012700 18 3568ft 0kts

Navigation Log

Ident Type
Flight plan parsing failed, navigation log unavailable